Hauptseite
METAR-TAF:

METAR-TAF

Flughäfen :

Singapur, Singapur

Breite: 01-22N, Länge: 103-55E, Höhe: 18 m

Beobachtung

Neuester Wetterbericht von vor 42 Minuten, um 17:00 UTC
Wind 6 kt aus Nord/Nordost
Temperatur 27°C
Luftfeuchtigkeit 84%
Luftdruck 1011 hPa
Sichtweite 10 km oder mehr
Leicht bewölkt in der Höhe von 1600 ft
Durchbrochene Bewölkung in der Höhe von 30000 ft

METAR: WSAP 251700Z 03006KT 9999 FEW016 BKN300 27/24 Q1011

Zeit: 01:42 (17:42 UTC)

Prognose

Neuester Wetterbericht von vor 42 Minuten, um 17:00 UTC
Gültige Prognose vom 25 um 18 UTC bis 27 um 00 UTC
Wind 10 kt aus Nord/Nordost
Sichtweite 10 km oder mehr
Leicht bewölkt in der Höhe von 2000 ft

TAF: WSAP 251700Z 2518/2700 03010KT 9999 FEW020

Wetterbeobachtungen und Prognosen von mehr als 4000 Flughäfen (METAR und TAF Bericht).

Die verfügbaren Stationen werden durch gelbe und rote Markierungen auf der Karte dargestellt.

Führen Sie die Maus auf sie, um den Namen der Station zu sehen.

Darauf klicken, um die Beobachtung von Wetterbeobachtungen und Prognosen zu sehen.

Um die Karte zu ändern : klicken Sie auf den grünen Tasten mit einem schwarzen Kreuz Zum Vergrößern, auf den grünen Button mit einem Gedankenstrich zu verkleinern, oder auf die grünen Pfeile für benachbarte Karten.


METAR-TAF: